Time;durP1;ratioP1;P1;durP2;ratioP2;P2;SDS_P1;SDS_P2;PMS_P1;PMS_P2;Temp;Humidity;BMP_temperature;BMP_pressure;BME280_temperature;BME280_humidity;BME280_pressure;Samples;Min_cycle;Max_cycle;Signal;HPM_P1;HPM_P2
2021/07/23 00:01:44;;;;;;;11.35;9.20;;;;;;;17.16;69.23;100669.75;5092646;28;20408;-66
2021/07/23 00:04:11;;;;;;;11.18;8.77;;;;;;;17.14;69.20;100663.66;5092280;28;20051;-66
2021/07/23 00:06:40;;;;;;;11.38;8.80;;;;;;;17.11;69.24;100669.16;5095559;28;20040;-66
2021/07/23 00:09:07;;;;;;;9.97;8.80;;;;;;;17.04;69.47;100662.13;5092390;28;20504;-66
2021/07/23 00:11:34;;;;;;;12.25;9.30;;;;;;;16.99;69.78;100662.41;5092483;28;21068;-66
2021/07/23 00:14:02;;;;;;;10.63;9.23;;;;;;;16.96;69.83;100657.47;5092697;28;20060;-66
2021/07/23 00:16:29;;;;;;;11.43;9.25;;;;;;;16.91;69.64;100668.16;5092586;28;20378;-66
2021/07/23 00:18:56;;;;;;;11.70;8.90;;;;;;;16.86;69.83;100657.13;5092401;28;20056;-66
2021/07/23 00:21:23;;;;;;;11.93;8.98;;;;;;;16.83;69.73;100655.84;5100326;28;20063;-66
2021/07/23 00:23:54;;;;;;;10.10;8.48;;;;;;;16.80;69.91;100656.53;5107183;28;20048;-66
2021/07/23 00:26:22;;;;;;;12.15;8.82;;;;;;;16.76;69.81;100656.41;5092241;28;20055;-66
2021/07/23 00:28:50;;;;;;;12.60;9.57;;;;;;;16.75;69.70;100662.38;5094511;28;20052;-66
2021/07/23 00:31:20;;;;;;;11.52;9.57;;;;;;;16.73;70.24;100661.91;5091801;28;20057;-66
2021/07/23 00:33:48;;;;;;;11.88;9.18;;;;;;;16.64;70.03;100665.66;5092086;28;20052;-66
2021/07/23 00:36:15;;;;;;;11.90;8.98;;;;;;;16.63;69.87;100665.97;5094091;28;20056;-66
2021/07/23 00:38:43;;;;;;;11.77;9.43;;;;;;;16.60;70.45;100653.44;5092203;28;20415;-66
2021/07/23 00:41:11;;;;;;;12.07;9.18;;;;;;;16.60;70.37;100653.44;5091959;28;20056;-66
2021/07/23 00:43:39;;;;;;;15.82;9.63;;;;;;;16.56;70.36;100658.13;5092280;28;20052;-66
2021/07/23 00:46:06;;;;;;;11.77;9.13;;;;;;;16.55;70.36;100662.13;5092351;28;20059;-66
2021/07/23 00:48:34;;;;;;;10.48;8.80;;;;;;;16.51;70.08;100666.00;5093882;28;20060;-66
2021/07/23 00:51:01;;;;;;;12.60;9.32;;;;;;;16.49;70.22;100662.72;5091889;28;20048;-66
2021/07/23 00:53:29;;;;;;;13.13;9.60;;;;;;;16.48;70.23;100655.44;5091825;28;20052;-66
2021/07/23 00:55:58;;;;;;;10.52;9.25;;;;;;;16.47;70.30;100668.69;5101511;28;20059;-66
2021/07/23 00:58:29;;;;;;;10.23;8.65;;;;;;;16.44;70.10;100667.41;5112919;28;20074;-66
2021/07/23 01:00:59;;;;;;;10.90;8.48;;;;;;;16.41;70.19;100661.66;5112562;28;20058;-66
2021/07/23 01:03:27;;;;;;;11.70;8.57;;;;;;;16.38;70.19;100659.53;5112332;28;20403;-66
2021/07/23 01:05:56;;;;;;;10.90;8.17;;;;;;;16.36;70.26;100661.88;5123936;28;20067;-66
2021/07/23 01:08:24;;;;;;;10.20;8.60;;;;;;;16.35;70.34;100657.41;5112407;28;20063;-66
2021/07/23 01:10:52;;;;;;;9.68;8.43;;;;;;;16.31;70.26;100657.28;5112805;28;20810;-66
2021/07/23 01:13:19;;;;;;;9.50;8.50;;;;;;;16.34;70.11;100655.78;5112137;28;20048;-66
2021/07/23 01:15:48;;;;;;;11.18;8.95;;;;;;;16.33;69.79;100651.31;5116120;28;20043;-66
2021/07/23 01:18:16;;;;;;;11.60;8.57;;;;;;;16.29;70.05;100653.19;5132669;28;20502;-66
2021/07/23 01:20:45;;;;;;;13.13;8.70;;;;;;;16.09;70.35;100650.13;5134397;27;20062;-66
2021/07/23 01:23:16;;;;;;;12.25;8.75;;;;;;;16.11;70.58;100659.03;5135240;27;20055;-66
2021/07/23 01:25:45;;;;;;;12.32;9.05;;;;;;;16.04;70.72;100653.13;5136008;27;20054;-66
2021/07/23 01:28:13;;;;;;;11.37;8.77;;;;;;;16.01;71.10;100651.03;5136384;27;20055;-66
2021/07/23 01:30:40;;;;;;;11.48;8.60;;;;;;;15.98;70.92;100646.09;5136186;27;20407;-66
2021/07/23 01:33:07;;;;;;;11.85;9.55;;;;;;;15.93;71.18;100649.13;5136266;27;20408;-66
2021/07/23 01:35:35;;;;;;;11.68;9.07;;;;;;;15.93;71.23;100643.50;5136366;27;20047;-66
2021/07/23 01:38:03;;;;;;;10.30;8.32;;;;;;;15.94;71.40;100645.16;5134325;27;20073;-66
2021/07/23 01:40:30;;;;;;;12.85;9.88;;;;;;;15.87;71.28;100642.09;5136342;27;20051;-66
2021/07/23 01:42:59;;;;;;;10.80;8.82;;;;;;;15.83;71.53;100642.78;5136009;27;20467;-66
2021/07/23 01:45:26;;;;;;;10.30;8.30;;;;;;;15.80;71.43;100642.66;5135760;27;20376;-66
2021/07/23 01:47:54;;;;;;;10.60;8.60;;;;;;;15.76;71.50;100642.50;5135835;27;20062;-66
2021/07/23 01:50:21;;;;;;;12.88;9.25;;;;;;;15.76;71.62;100636.09;5135956;27;20071;-66
2021/07/23 01:52:49;;;;;;;11.48;9.15;;;;;;;15.71;71.35;100637.09;5124923;27;20059;-66
2021/07/23 01:55:16;;;;;;;12.82;9.32;;;;;;;15.67;71.84;100638.94;5114667;28;20063;-66
2021/07/23 01:57:43;;;;;;;13.25;9.02;;;;;;;15.68;71.38;100637.78;5115694;28;20043;-66
2021/07/23 02:00:13;;;;;;;12.93;9.77;;;;;;;15.67;71.04;100638.94;5115600;28;20055;-66
2021/07/23 02:02:41;;;;;;;12.05;9.20;;;;;;;15.58;71.82;100641.00;5115042;28;20052;-66
2021/07/23 02:05:09;;;;;;;11.30;9.57;;;;;;;15.54;71.55;100640.88;5123506;27;20502;-66
2021/07/23 02:07:37;;;;;;;10.95;9.45;;;;;;;15.57;71.49;100643.00;5118543;27;20051;-66
2021/07/23 02:10:06;;;;;;;12.05;9.07;;;;;;;15.57;71.51;100642.19;5114951;28;20054;-66
2021/07/23 02:12:33;;;;;;;;;;;;;;;15.50;71.20;100636.31;5115382;28;20047;-66
2021/07/23 02:15:01;;;;;;;9.93;8.38;;;;;;;15.46;71.30;100635.34;5114770;27;20275;-66
2021/07/23 02:17:29;;;;;;;11.45;8.10;;;;;;;15.40;71.20;100634.72;5114542;28;20062;-66
2021/07/23 02:19:57;;;;;;;11.25;8.80;;;;;;;15.34;71.69;100642.53;5114673;28;20055;-66
2021/07/23 02:22:24;;;;;;;12.40;8.45;;;;;;;15.32;71.35;100635.63;5115124;27;20051;-66
2021/07/23 02:24:52;;;;;;;11.43;8.88;;;;;;;15.31;71.94;100634.81;5114531;27;20047;-66
2021/07/23 02:27:19;;;;;;;11.77;8.90;;;;;;;15.21;71.91;100638.03;5114646;28;20389;-66
2021/07/23 02:29:46;;;;;;;12.32;8.60;;;;;;;15.24;71.68;100640.13;5123833;27;20043;-66
2021/07/23 02:32:14;;;;;;;13.00;8.88;;;;;;;15.23;71.71;100642.13;5135078;27;20495;-66
2021/07/23 02:34:45;;;;;;;11.85;8.75;;;;;;;15.18;72.50;100636.72;5135282;27;20047;-66
2021/07/23 02:37:12;;;;;;;13.23;9.18;;;;;;;15.21;72.17;100636.03;5135201;27;20506;-66
2021/07/23 02:39:39;;;;;;;10.25;8.48;;;;;;;15.25;71.85;100630.56;5114967;28;20059;-66
2021/07/23 02:42:07;;;;;;;11.50;8.15;;;;;;;15.23;71.60;100618.84;5114386;28;20500;-66
2021/07/23 02:44:34;;;;;;;11.90;8.65;;;;;;;15.22;71.43;100629.28;5114648;28;20481;-66
2021/07/23 02:47:02;;;;;;;12.15;8.27;;;;;;;15.26;70.98;100620.16;5114014;28;20058;-66
2021/07/23 02:49:29;;;;;;;10.93;8.20;;;;;;;15.16;71.24;100624.19;5114057;28;20060;-66
2021/07/23 02:51:58;;;;;;;10.77;8.35;;;;;;;15.13;71.04;100627.69;5114581;28;20051;-66
2021/07/23 02:54:25;;;;;;;9.23;7.93;;;;;;;15.07;71.61;100626.25;5113977;27;20377;-66
2021/07/23 02:56:53;;;;;;;12.85;8.57;;;;;;;15.00;72.01;100618.38;5113563;28;20070;-66
2021/07/23 02:59:20;;;;;;;10.70;8.48;;;;;;;15.01;71.96;100622.81;5113709;28;20393;-66
2021/07/23 03:01:48;;;;;;;10.85;8.80;;;;;;;15.04;71.39;100612.91;5114141;28;20071;-66
2021/07/23 03:04:15;;;;;;;11.68;8.68;;;;;;;14.99;71.57;100614.75;5114549;28;20400;-66
2021/07/23 03:06:42;;;;;;;12.98;8.75;;;;;;;14.95;71.55;100615.75;5126632;27;20052;-66
2021/07/23 03:09:11;;;;;;;8.90;8.00;;;;;;;14.90;72.15;100607.56;5134554;27;20047;-66
2021/07/23 03:11:38;;;;;;;10.98;8.02;;;;;;;14.88;71.89;100609.88;5134271;27;20055;-66
2021/07/23 03:14:06;;;;;;;10.50;7.95;;;;;;;14.91;71.87;100607.22;5134146;27;20507;-66
2021/07/23 03:16:33;;;;;;;12.77;8.07;;;;;;;14.93;71.72;100604.06;5134120;27;20391;-66
2021/07/23 03:19:00;;;;;;;12.50;8.05;;;;;;;14.91;71.85;100600.75;5133912;27;20047;-66
2021/07/23 03:21:28;;;;;;;12.43;8.07;;;;;;;14.90;72.41;100599.94;5132289;27;20055;-66
2021/07/23 03:23:55;;;;;;;11.88;8.48;;;;;;;14.95;71.70;100596.13;5127791;27;20427;-66
2021/07/23 03:26:24;;;;;;;9.70;7.57;;;;;;;15.00;71.37;100596.75;5113391;28;20054;-66
2021/07/23 03:28:51;;;;;;;10.25;7.45;;;;;;;15.00;71.47;100604.34;5113827;28;20056;-66
2021/07/23 03:31:18;;;;;;;11.85;8.50;;;;;;;14.99;71.46;100586.69;5113306;28;20388;-66
2021/07/23 03:33:45;;;;;;;10.57;8.50;;;;;;;15.03;71.74;100586.81;5113201;28;20476;-66
2021/07/23 03:36:13;;;;;;;9.32;8.32;;;;;;;15.06;71.41;100590.94;5113751;28;20058;-66
2021/07/23 03:38:40;;;;;;;9.82;8.02;;;;;;;15.04;71.46;100593.28;5114027;28;20051;-66
2021/07/23 03:41:08;;;;;;;11.50;9.00;;;;;;;14.98;71.41;100595.44;5127791;27;20047;-66
2021/07/23 03:43:36;;;;;;;11.45;8.93;;;;;;;14.88;72.18;100591.06;5112792;28;20055;-66
2021/07/23 03:46:04;;;;;;;12.35;8.95;;;;;;;14.89;72.27;100586.25;5114055;28;20048;-66
2021/07/23 03:48:31;;;;;;;13.20;8.82;;;;;;;14.92;71.84;100594.00;5123090;27;20388;-66
2021/07/23 03:50:58;;;;;;;11.25;8.20;;;;;;;14.96;71.73;100594.97;5121746;27;20055;-65
2021/07/23 03:53:26;;;;;;;11.55;8.20;;;;;;;14.94;71.25;100589.69;5116577;27;20048;-65
2021/07/23 03:55:54;;;;;;;10.80;8.25;;;;;;;14.92;71.32;100588.41;5113155;28;20051;-65
2021/07/23 03:58:23;;;;;;;12.60;9.45;;;;;;;14.84;72.08;100590.09;5113493;28;20480;-65
2021/07/23 04:00:52;;;;;;;10.27;8.07;;;;;;;14.89;71.85;100592.72;5113013;28;20052;-65
2021/07/23 04:03:23;;;;;;;11.05;8.98;;;;;;;14.89;71.71;100589.06;5113376;28;20048;-65
2021/07/23 04:05:51;;;;;;;11.80;8.35;;;;;;;14.93;71.36;100588.06;5126382;28;20043;-65
2021/07/23 04:08:18;;;;;;;11.85;8.82;;;;;;;14.95;70.69;100588.53;5113683;28;20052;-65
2021/07/23 04:10:45;;;;;;;9.82;7.90;;;;;;;14.94;71.04;100588.88;5112970;28;20055;-65
2021/07/23 04:13:12;;;;;;;10.77;8.15;;;;;;;14.92;71.21;100591.19;5112772;28;20055;-65
2021/07/23 04:15:40;;;;;;;11.40;8.35;;;;;;;14.88;70.90;100591.06;5112441;28;20047;-65
2021/07/23 04:18:09;;;;;;;14.25;8.82;;;;;;;14.86;71.12;100584.16;5112952;28;20055;-65
2021/07/23 04:20:36;;;;;;;13.10;8.20;;;;;;;14.88;70.91;100585.44;5117770;28;20047;-65
2021/07/23 04:23:04;;;;;;;11.93;7.78;;;;;;;14.90;70.65;100583.13;5132999;28;20051;-65
2021/07/23 04:25:31;;;;;;;9.88;8.23;;;;;;;14.93;70.92;100581.59;5112862;28;20051;-65
2021/07/23 04:27:59;;;;;;;12.15;8.10;;;;;;;14.89;70.90;100584.31;5112704;28;20058;-65
2021/07/23 04:30:26;;;;;;;11.65;8.63;;;;;;;14.87;71.09;100586.63;5112598;28;20051;-65
2021/07/23 04:32:54;;;;;;;12.10;9.05;;;;;;;14.81;71.35;100583.19;5112505;28;20051;-65
2021/07/23 04:35:23;;;;;;;11.60;9.18;;;;;;;14.85;71.28;100576.91;5112628;28;20051;-65
2021/07/23 04:37:50;;;;;;;11.43;8.97;;;;;;;14.88;71.36;100585.44;5113994;28;20051;-65
2021/07/23 04:40:18;;;;;;;9.65;8.60;;;;;;;14.93;71.17;100576.00;5116935;28;20407;-65
2021/07/23 04:42:45;;;;;;;11.55;9.18;;;;;;;14.94;71.16;100581.28;5133157;28;20518;-65
2021/07/23 04:45:14;;;;;;;10.77;9.18;;;;;;;14.97;71.60;100569.38;5133207;28;20050;-65
2021/07/23 04:47:43;;;;;;;10.68;8.52;;;;;;;15.02;71.22;100573.97;5114585;28;20048;-65
2021/07/23 04:50:11;;;;;;;9.88;8.35;;;;;;;15.07;71.29;100570.13;5112015;28;20051;-65
2021/07/23 04:52:40;;;;;;;13.55;8.82;;;;;;;15.13;71.42;100571.56;5112585;28;20051;-65
2021/07/23 04:55:09;;;;;;;17.17;9.10;;;;;;;15.19;71.02;100578.63;5112948;28;20468;-65
2021/07/23 04:57:43;;;;;;;12.43;8.50;;;;;;;15.30;70.56;100573.41;5116254;27;20845;-65
2021/07/23 05:00:12;;;;;;;11.25;8.15;;;;;;;15.33;70.43;100576.34;5116099;28;20059;-65
2021/07/23 05:02:41;;;;;;;11.17;9.03;;;;;;;15.42;70.16;100579.88;5116141;28;20056;-65
2021/07/23 05:05:11;;;;;;;10.73;7.95;;;;;;;15.53;69.97;100565.41;5116472;27;20056;-65
2021/07/23 05:07:40;;;;;;;10.20;7.90;;;;;;;15.58;70.26;100574.47;5116351;28;20055;-65
2021/07/23 05:10:09;;;;;;;12.73;7.95;;;;;;;15.62;69.76;100572.59;5115439;28;20074;-65
2021/07/23 05:12:38;;;;;;;10.32;8.25;;;;;;;15.73;69.56;100570.19;5125765;27;20046;-65
2021/07/23 05:15:11;;;;;;;10.80;8.18;;;;;;;15.82;70.01;100578.53;5120257;27;20051;-65
2021/07/23 05:17:39;;;;;;;12.38;8.00;;;;;;;15.93;69.47;100578.91;5115927;28;20055;-65
2021/07/23 05:20:09;;;;;;;12.40;8.13;;;;;;;16.00;69.15;100582.78;5114327;28;20469;-65
2021/07/23 05:22:37;;;;;;;;;;;;;;;16.11;69.05;100576.72;5119791;27;20058;-65
2021/07/23 05:25:08;;;;;;;12.35;8.25;;;;;;;16.21;68.74;100570.59;5122975;27;19927;-65
2021/07/23 05:27:36;;;;;;;9.32;7.90;;;;;;;16.35;68.28;100573.91;5125475;27;20050;-65
2021/07/23 05:30:15;;;;;;;11.23;7.60;;;;;;;16.47;67.98;100581.53;5115565;28;20043;-65
2021/07/23 05:35:45;;;;;;;9.73;8.73;;;;;;;16.71;68.04;100577.03;5079275;27;20632;-66
2021/07/23 05:38:15;;;;;;;10.43;8.88;;;;;;;16.84;68.05;100573.91;5067701;28;20052;-66
2021/07/23 05:40:43;;;;;;;12.05;8.73;;;;;;;16.93;67.37;100572.94;5066047;28;20057;-66
2021/07/23 05:46:09;;;;;;;10.70;8.52;;;;;;;17.14;67.49;100575.59;5064059;28;20052;-66
2021/07/23 05:48:40;;;;;;;14.20;9.65;;;;;;;17.22;66.89;100583.06;5065808;28;20045;-66
2021/07/23 05:51:11;;;;;;;11.07;8.75;;;;;;;17.23;67.04;100579.88;5077761;28;20481;-66
2021/07/23 05:53:39;;;;;;;13.65;10.10;;;;;;;17.33;66.44;100581.38;5065929;28;20340;-66
2021/07/23 05:56:08;;;;;;;12.60;10.50;;;;;;;17.40;66.07;100575.94;5069856;28;20060;-66
2021/07/23 05:58:36;;;;;;;11.18;8.75;;;;;;;17.47;65.83;100577.31;5068883;28;20060;-66
2021/07/23 06:01:06;;;;;;;14.27;9.48;;;;;;;17.51;66.17;100573.44;5067033;28;20418;-53
2021/07/23 06:03:34;;;;;;;10.10;8.75;;;;;;;17.50;66.55;100571.00;5067840;28;20056;-56
2021/07/23 06:06:02;;;;;;;12.77;8.65;;;;;;;17.73;66.06;100568.41;5069629;28;20063;-56
2021/07/23 06:08:32;;;;;;;11.50;8.80;;;;;;;17.77;65.17;100572.97;5069940;28;20048;-52
2021/07/23 06:11:05;;;;;;;10.95;8.32;;;;;;;17.92;64.72;100565.72;5068595;28;20052;-52
2021/07/23 06:13:35;;;;;;;12.77;8.27;;;;;;;18.06;63.62;100565.31;5067959;28;20064;-66
2021/07/23 06:16:04;;;;;;;11.43;8.80;;;;;;;18.17;63.52;100569.19;5066584;28;20052;-66
2021/07/23 06:18:31;;;;;;;10.38;7.60;;;;;;;18.31;63.22;100576.38;5067866;28;20052;-66
2021/07/23 06:20:58;;;;;;;11.07;8.32;;;;;;;18.48;62.78;100566.72;5069556;28;20059;-66
2021/07/23 06:23:26;;;;;;;13.27;8.48;;;;;;;18.38;62.71;100570.94;5069080;28;20052;-66
2021/07/23 06:25:58;;;;;;;11.75;8.13;;;;;;;18.61;62.15;100571.88;5068565;28;20052;-66
2021/07/23 06:28:25;;;;;;;9.85;7.40;;;;;;;18.80;61.39;100573.16;5068361;28;20054;-66
2021/07/23 06:30:59;;;;;;;11.60;7.82;;;;;;;18.95;60.66;100568.66;5068290;28;20057;-66
2021/07/23 06:33:26;;;;;;;11.38;8.18;;;;;;;19.11;60.61;100571.41;5068963;28;20470;-66
2021/07/23 06:35:53;;;;;;;11.43;8.05;;;;;;;19.31;59.93;100570.22;5068131;28;20056;-66
2021/07/23 06:38:21;;;;;;;12.32;8.02;;;;;;;19.48;59.19;100569.78;5068741;28;20053;-66
2021/07/23 06:40:48;;;;;;;10.60;7.85;;;;;;;19.67;59.15;100573.78;5068424;28;20060;-66
2021/07/23 06:43:17;;;;;;;10.90;7.93;;;;;;;19.89;58.57;100571.41;5067913;28;20052;-66
2021/07/23 06:45:51;;;;;;;8.05;7.18;;;;;;;20.01;57.30;100565.53;5062269;28;20053;-66
2021/07/23 06:48:18;;;;;;;13.60;8.40;;;;;;;20.10;57.31;100568.16;5056005;28;20061;-66
2021/07/23 06:50:45;;;;;;;9.70;7.63;;;;;;;20.18;56.75;100570.72;5055928;28;20045;-66
2021/07/23 06:53:13;;;;;;;9.50;7.18;;;;;;;20.33;56.16;100566.13;5054795;28;20052;-66
2021/07/23 06:55:40;;;;;;;10.65;7.78;;;;;;;20.43;56.20;100564.63;5046440;28;20044;-66
2021/07/23 06:58:07;;;;;;;10.48;7.03;;;;;;;20.54;55.89;100567.66;5053159;28;20136;-67
2021/07/23 07:00:36;;;;;;;10.23;7.57;;;;;;;20.65;56.13;100575.13;5046096;28;20060;-67
2021/07/23 07:03:06;;;;;;;;;;;;;;;20.77;55.16;100573.31;5053974;28;20067;-67
2021/07/23 07:05:34;;;;;;;9.00;6.75;;;;;;;20.96;54.91;100570.34;5052178;28;19921;-67
2021/07/23 07:08:02;;;;;;;8.32;6.70;;;;;;;21.14;54.83;100575.41;5053152;28;20057;-67
2021/07/23 07:10:29;;;;;;;11.57;6.95;;;;;;;21.19;54.26;100586.44;5039944;28;20721;-67
2021/07/23 07:12:57;;;;;;;8.75;6.88;;;;;;;21.37;53.87;100578.97;5053435;28;20056;-67
2021/07/23 07:15:24;;;;;;;8.80;7.05;;;;;;;21.60;53.60;100578.06;5047495;28;20057;-67
2021/07/23 07:17:57;;;;;;;10.45;7.00;;;;;;;21.76;52.73;100581.47;5051113;28;20441;-67
2021/07/23 07:20:25;;;;;;;8.98;7.30;;;;;;;21.81;52.90;100581.13;5047117;28;20056;-67
2021/07/23 07:22:53;;;;;;;9.18;7.13;;;;;;;21.98;52.77;100578.84;5053732;28;20504;-68
2021/07/23 07:25:20;;;;;;;8.85;6.82;;;;;;;22.21;51.68;100578.66;5045319;28;20085;-68
2021/07/23 07:27:48;;;;;;;9.18;6.85;;;;;;;22.43;51.65;100579.72;5049620;28;20057;-68
2021/07/23 07:30:16;;;;;;;8.23;6.15;;;;;;;22.75;49.96;100581.97;5052960;28;20128;-68
2021/07/23 07:32:43;;;;;;;8.20;6.63;;;;;;;23.16;49.30;100576.97;5052382;28;20068;-66
2021/07/23 07:35:13;;;;;;;10.07;7.07;;;;;;;23.54;48.49;100582.41;5052439;28;20059;-66
2021/07/23 07:37:40;;;;;;;8.52;6.13;;;;;;;23.98;47.68;100579.31;5052237;28;20056;-66
2021/07/23 07:40:08;;;;;;;9.70;6.18;;;;;;;24.42;46.09;100585.84;5052165;28;20063;-66
2021/07/23 07:42:38;;;;;;;9.05;5.85;;;;;;;24.75;45.81;100584.63;5052189;28;20360;-66
2021/07/23 07:45:06;;;;;;;13.60;7.20;;;;;;;25.15;43.93;100571.09;5053529;28;20056;-67
2021/07/23 07:47:34;;;;;;;6.47;5.77;;;;;;;25.59;42.70;100569.72;5051437;28;20049;-67
2021/07/23 07:50:01;;;;;;;7.55;5.93;;;;;;;26.21;42.05;100570.19;5048578;28;20479;-67
2021/07/23 07:52:30;;;;;;;10.23;6.47;;;;;;;27.00;40.08;100572.31;5052041;28;20053;-67
2021/07/23 07:54:57;;;;;;;10.07;5.80;;;;;;;27.11;38.74;100562.38;5043087;28;20049;-67
2021/07/23 07:57:25;;;;;;;8.38;5.70;;;;;;;27.58;37.77;100561.00;5048390;28;20067;-67
2021/07/23 07:59:53;;;;;;;8.13;5.53;;;;;;;27.12;38.87;100557.47;5052167;28;20485;-67
2021/07/23 08:02:21;;;;;;;7.45;5.72;;;;;;;28.06;37.27;100563.59;5049379;28;20048;-67
2021/07/23 08:04:48;;;;;;;7.78;5.20;;;;;;;28.72;35.11;100569.88;5046367;28;20061;-67
2021/07/23 08:07:19;;;;;;;8.32;5.60;;;;;;;29.51;34.71;100563.41;5051979;28;20485;-67
2021/07/23 08:09:52;;;;;;;7.50;5.45;;;;;;;30.23;32.70;100556.03;5047083;28;20056;-67
2021/07/23 08:12:20;;;;;;;5.07;4.57;;;;;;;30.91;31.97;100550.59;5050170;28;20498;-67
2021/07/23 08:14:48;;;;;;;7.60;5.40;;;;;;;31.39;30.63;100543.03;5051156;28;20053;-67
2021/07/23 08:17:16;;;;;;;8.88;4.75;;;;;;;31.69;29.50;100538.88;5044974;28;20048;-67
2021/07/23 08:19:44;;;;;;;6.22;4.38;;;;;;;32.12;29.55;100534.63;5052727;28;20056;-67
2021/07/23 08:22:11;;;;;;;6.43;4.70;;;;;;;33.08;28.48;100546.19;5051186;28;20052;-67
2021/07/23 08:24:39;;;;;;;6.88;4.50;;;;;;;33.56;26.70;100532.38;5049713;28;20048;-67
2021/07/23 08:27:08;;;;;;;4.65;4.15;;;;;;;33.94;26.39;100537.88;5050522;28;20051;-67
2021/07/23 08:29:35;;;;;;;;;;;;;;;34.43;25.47;100533.38;5048112;28;20413;-67
2021/07/23 08:32:07;;;;;;;7.72;4.60;;;;;;;35.01;25.13;100530.84;5050283;28;19920;-67
2021/07/23 08:34:34;;;;;;;5.65;4.13;;;;;;;35.75;24.00;100528.66;5050003;28;20045;-67
2021/07/23 08:37:02;;;;;;;4.72;4.20;;;;;;;36.17;22.95;100525.75;5042486;28;20049;-68
2021/07/23 08:39:30;;;;;;;15.00;4.78;;;;;;;36.52;22.80;100533.13;5047604;28;20060;-68
2021/07/23 08:41:57;;;;;;;5.45;4.50;;;;;;;37.11;22.17;100526.72;5050737;28;20086;-67
2021/07/23 08:44:27;;;;;;;8.57;4.80;;;;;;;37.64;21.85;100527.94;5050537;28;20044;-67
2021/07/23 08:46:54;;;;;;;5.38;4.57;;;;;;;38.01;20.39;100527.47;5046206;28;20049;-68
2021/07/23 08:49:22;;;;;;;5.60;4.32;;;;;;;38.05;20.73;100525.19;5048563;28;20052;-68
2021/07/23 08:51:50;;;;;;;4.82;4.35;;;;;;;38.40;20.08;100515.63;5045333;28;20057;-68
2021/07/23 08:54:18;;;;;;;6.80;4.38;;;;;;;38.90;19.75;100515.50;5049501;28;20037;-68
2021/07/23 08:56:47;;;;;;;5.68;4.65;;;;;;;39.26;19.38;100511.13;5047482;28;20056;-68
2021/07/23 08:59:16;;;;;;;6.78;4.38;;;;;;;39.74;18.88;100513.44;5051512;28;20057;-68
2021/07/23 09:01:58;;;;;;;5.85;3.95;;;;;;;40.42;17.99;100516.81;5049449;28;20049;-68
2021/07/23 09:04:29;;;;;;;5.30;4.18;;;;;;;40.74;16.65;100511.69;5045892;28;20399;-68
2021/07/23 09:07:32;;;;;;;7.50;5.40;;;;;;;39.89;17.72;100510.38;5049207;28;20519;-68
2021/07/23 09:10:05;;;;;;;6.45;4.80;;;;;;;41.17;17.25;100502.78;4987791;28;20470;-68
2021/07/23 09:12:46;;;;;;;4.80;3.95;;;;;;;41.88;16.54;100500.94;5039890;28;20049;-68
2021/07/23 09:15:21;;;;;;;6.40;4.70;;;;;;;42.63;16.06;100509.81;5044505;28;20409;-68
2021/07/23 09:17:51;;;;;;;4.78;4.20;;;;;;;42.78;16.49;100504.41;5048751;28;20053;-68
2021/07/23 09:20:31;;;;;;;4.63;4.03;;;;;;;43.47;15.25;100496.81;5039048;28;20422;-68
2021/07/23 09:23:00;;;;;;;5.00;3.90;;;;;;;43.57;14.63;100500.16;5042996;28;20044;-68
2021/07/23 09:25:44;;;;;;;7.47;4.22;;;;;;;44.55;14.25;100493.59;5048631;28;20064;-68
2021/07/23 09:28:23;;;;;;;6.93;4.60;;;;;;;44.58;14.28;100484.47;5046591;28;20053;-68
2021/07/23 09:30:52;;;;;;;4.63;4.18;;;;;;;45.08;12.96;100482.16;5040611;28;20049;-68
2021/07/23 09:33:32;;;;;;;5.10;4.60;;;;;;;45.48;12.96;100478.59;5047879;28;20049;-68
2021/07/23 09:36:03;;;;;;;4.90;4.25;;;;;;;45.48;13.39;100479.38;5049191;28;20064;-68
2021/07/23 09:38:38;;;;;;;5.22;4.68;;;;;;;45.63;12.26;100481.03;5049725;28;20060;-68
2021/07/23 09:41:09;;;;;;;5.80;4.35;;;;;;;45.91;12.41;100481.31;5045086;28;20049;-68
2021/07/23 09:43:38;;;;;;;5.07;4.55;;;;;;;45.92;12.57;100479.16;5049148;28;20429;-68
2021/07/23 09:46:26;;;;;;;7.07;4.13;;;;;;;46.01;12.62;100484.63;5042147;28;20049;-68
2021/07/23 09:48:59;;;;;;;5.63;4.20;;;;;;;46.45;11.84;100473.28;5047087;28;20405;-68
2021/07/23 09:51:30;;;;;;;6.88;4.97;;;;;;;46.58;11.44;100472.50;5050781;28;20068;-68
2021/07/23 09:53:58;;;;;;;7.20;4.45;;;;;;;46.68;12.01;100470.63;5040875;28;20045;-68
2021/07/23 09:56:28;;;;;;;6.60;5.13;;;;;;;46.81;11.63;100469.84;5048821;28;20381;-68
2021/07/23 09:59:03;;;;;;;4.90;4.40;;;;;;;47.37;11.81;100470.66;5046779;28;20044;-68
2021/07/23 10:01:36;;;;;;;5.15;4.75;;;;;;;47.23;11.67;100464.03;5049982;28;20065;-68
2021/07/23 10:04:15;;;;;;;5.00;4.50;;;;;;;47.80;11.47;100459.59;5050867;28;20053;-68
2021/07/23 10:06:49;;;;;;;4.90;4.45;;;;;;;47.74;11.15;100465.69;5047476;28;20413;-68
2021/07/23 10:09:23;;;;;;;5.57;4.85;;;;;;;47.83;11.07;100458.47;5042283;28;20049;-68
2021/07/23 10:11:51;;;;;;;6.47;5.80;;;;;;;47.88;10.82;100449.47;5047471;28;20056;-68
2021/07/23 10:14:23;;;;;;;7.93;4.72;;;;;;;48.18;10.82;100448.09;5050609;28;20482;-68
2021/07/23 10:16:51;;;;;;;6.53;4.72;;;;;;;48.20;11.02;100445.34;5043220;28;20068;-68
2021/07/23 10:19:22;;;;;;;5.10;4.60;;;;;;;48.68;10.39;100439.88;5045884;28;20403;-68
2021/07/23 10:21:55;;;;;;;4.88;4.43;;;;;;;48.29;11.18;100441.84;5053368;28;20730;-68
2021/07/23 10:24:23;;;;;;;5.18;4.68;;;;;;;48.43;11.00;100430.72;5053147;28;20044;-68
2021/07/23 10:26:54;;;;;;;5.90;4.53;;;;;;;48.60;10.46;100430.16;5054146;28;20057;-68
2021/07/23 10:29:43;;;;;;;5.22;4.70;;;;;;;48.93;10.03;100428.31;5051804;28;20052;-69
2021/07/23 10:32:32;;;;;;;5.32;4.78;;;;;;;48.64;10.70;100424.69;5046970;28;20502;-68
2021/07/23 10:35:02;;;;;;;5.78;4.55;;;;;;;48.85;10.60;100421.59;5052004;28;20637;-67
2021/07/23 10:37:57;;;;;;;5.70;5.10;;;;;;;49.34;10.41;100425.63;5052763;28;20052;-67
2021/07/23 10:40:33;;;;;;;6.75;4.60;;;;;;;49.45;9.84;100422.28;5009560;28;20100;-67
2021/07/23 10:43:00;;;;;;;5.75;5.03;;;;;;;49.68;9.41;100413.38;5052982;28;20053;-67
2021/07/23 10:45:42;;;;;;;5.88;4.43;;;;;;;49.05;10.12;100419.09;5054121;28;20698;-67
2021/07/23 10:48:09;;;;;;;6.13;4.82;;;;;;;49.34;10.33;100410.81;5045934;28;20044;-67
2021/07/23 10:50:54;;;;;;;;;;;;;;;49.41;9.95;100404.13;5054335;28;20053;-67
2021/07/23 10:53:36;;;;;;;12.82;5.13;;;;;;;49.46;9.71;100403.16;5049949;28;19931;-67
2021/07/23 10:56:04;;;;;;;6.22;4.50;;;;;;;49.60;9.90;100400.75;5047507;28;20058;-67
2021/07/23 10:58:35;;;;;;;11.07;5.60;;;;;;;48.87;10.17;100400.28;5052772;28;20374;-67
2021/07/23 11:01:03;;;;;;;5.70;5.10;;;;;;;48.80;10.07;100401.06;5049294;28;20045;-67
2021/07/23 11:03:47;;;;;;;6.82;4.85;;;;;;;49.53;10.63;100398.59;5048267;28;20064;-67
2021/07/23 11:06:17;;;;;;;4.93;4.25;;;;;;;49.98;9.83;100388.06;5047882;28;20052;-67
2021/07/23 11:08:53;;;;;;;6.10;5.40;;;;;;;50.08;9.25;100403.06;5052417;28;20053;-67
2021/07/23 11:11:21;;;;;;;6.38;4.82;;;;;;;50.02;9.67;100385.47;5045570;28;20053;-67
2021/07/23 11:13:49;;;;;;;6.22;5.07;;;;;;;49.82;9.35;100393.25;5053249;28;20053;-67
2021/07/23 11:16:18;;;;;;;8.75;4.80;;;;;;;50.05;9.42;100383.50;5049253;28;20544;-67
2021/07/23 11:18:55;;;;;;;6.30;4.70;;;;;;;49.80;8.98;100387.13;5051756;28;20056;-67
2021/07/23 11:21:24;;;;;;;5.53;4.50;;;;;;;49.25;9.75;100381.81;5047545;28;20492;-67
2021/07/23 11:23:53;;;;;;;8.07;4.30;;;;;;;49.45;10.29;100380.84;5046934;28;20057;-67
2021/07/23 11:26:25;;;;;;;5.75;4.68;;;;;;;49.92;9.92;100373.47;5044218;28;20053;-67
2021/07/23 11:28:55;;;;;;;6.32;5.30;;;;;;;49.26;9.69;100377.47;5049600;28;20493;-67
2021/07/23 11:31:34;;;;;;;6.45;4.60;;;;;;;49.11;9.46;100367.22;5050020;28;20059;-67
2021/07/23 11:34:22;;;;;;;4.47;4.13;;;;;;;49.10;10.01;100365.66;5051351;28;20061;-67
2021/07/23 11:36:50;;;;;;;6.78;4.53;;;;;;;49.01;9.65;100360.31;5050683;28;20131;-66
2021/07/23 11:39:22;;;;;;;7.00;4.20;;;;;;;49.16;9.54;100357.38;5051365;28;20049;-66